createdAt,value
2022-08-18T00:00:21.870Z,29.40
2022-08-18T00:02:30.085Z,29.40
2022-08-18T00:04:35.260Z,29.40
2022-08-18T00:06:38.380Z,29.40
2022-08-18T00:08:40.021Z,29.40
2022-08-18T00:10:42.559Z,29.40
2022-08-18T00:12:44.175Z,29.50
2022-08-18T00:14:46.510Z,29.40
2022-08-18T00:16:48.739Z,29.40
2022-08-18T00:18:50.390Z,29.50
2022-08-18T00:20:52.187Z,29.50
2022-08-18T00:22:56.404Z,29.50
2022-08-18T00:24:58.516Z,29.50
2022-08-18T00:27:00.093Z,29.50
2022-08-18T00:29:01.901Z,29.40
2022-08-18T00:31:04.999Z,29.40
2022-08-18T00:33:06.573Z,29.40
2022-08-18T00:35:13.736Z,29.40
2022-08-18T00:37:15.356Z,29.50
2022-08-18T00:39:17.321Z,29.40
2022-08-18T00:41:20.144Z,29.50
2022-08-18T00:43:26.263Z,29.40
2022-08-18T00:45:32.928Z,29.40
2022-08-18T00:47:42.557Z,29.40
2022-08-18T00:49:46.417Z,29.40
2022-08-18T00:51:50.469Z,29.30
2022-08-18T00:53:56.798Z,29.30
2022-08-18T00:56:00.332Z,29.30
2022-08-18T00:58:06.526Z,29.30
2022-08-18T01:00:15.075Z,29.40
2022-08-18T01:02:29.272Z,29.30
2022-08-18T01:04:36.930Z,29.30
2022-08-18T01:06:53.773Z,29.20
2022-08-18T01:08:55.954Z,29.30
2022-08-18T01:10:58.871Z,29.30
2022-08-18T01:13:00.486Z,29.30
2022-08-18T01:15:02.120Z,29.30
2022-08-18T01:17:22.513Z,29.30
2022-08-18T01:19:43.478Z,29.30
2022-08-18T01:21:53.503Z,29.30
2022-08-18T01:23:55.912Z,29.30
2022-08-18T01:26:00.528Z,29.20
2022-08-18T01:28:03.243Z,29.30
2022-08-18T01:30:10.222Z,29.20
2022-08-18T01:32:14.056Z,29.20
2022-08-18T01:34:15.978Z,29.30
2022-08-18T01:36:20.728Z,29.30
2022-08-18T01:38:22.754Z,29.20
2022-08-18T01:41:27.717Z,29.30
2022-08-18T01:42:46.536Z,29.20
2022-08-18T01:44:51.139Z,29.20
2022-08-18T01:46:53.139Z,29.20
2022-08-18T01:48:54.939Z,29.20
2022-08-18T01:50:57.002Z,29.30
2022-08-18T01:52:58.582Z,29.30
2022-08-18T01:55:00.332Z,29.20
2022-08-18T01:57:01.988Z,29.20
2022-08-18T01:59:04.046Z,29.20
2022-08-18T02:01:05.719Z,29.20
2022-08-18T02:03:09.186Z,29.20
2022-08-18T02:05:16.791Z,29.30
2022-08-18T02:07:18.559Z,29.30
2022-08-18T02:09:23.815Z,29.20
2022-08-18T02:11:26.105Z,29.20
2022-08-18T02:13:27.691Z,29.30
2022-08-18T02:15:29.381Z,29.20
2022-08-18T02:17:36.450Z,29.20
2022-08-18T02:19:39.696Z,29.20
2022-08-18T02:21:41.330Z,29.20
2022-08-18T02:23:44.969Z,29.20
2022-08-18T02:25:54.715Z,29.20
2022-08-18T02:27:56.695Z,29.20
2022-08-18T02:30:00.279Z,29.20
2022-08-18T02:32:02.296Z,29.20
2022-08-18T02:34:03.866Z,29.20
2022-08-18T02:36:07.076Z,29.20
2022-08-18T02:38:08.679Z,29.20
2022-08-18T02:40:15.473Z,29.20
2022-08-18T02:42:17.377Z,29.20
2022-08-18T02:44:18.971Z,29.20
2022-08-18T02:46:20.583Z,29.20
2022-08-18T02:48:45.604Z,29.20
2022-08-18T02:50:47.332Z,29.20
2022-08-18T02:52:49.115Z,29.20
2022-08-18T02:54:50.916Z,29.20
2022-08-18T02:56:53.065Z,29.20
2022-08-18T02:58:56.268Z,29.20
2022-08-18T03:00:58.070Z,29.20
2022-08-18T03:02:59.673Z,29.20
2022-08-18T03:05:01.319Z,29.20
2022-08-18T03:07:05.091Z,29.20
2022-08-18T03:09:07.876Z,29.20
2022-08-18T03:11:09.909Z,29.30
2022-08-18T03:13:11.485Z,29.20
2022-08-18T03:15:13.144Z,29.20
2022-08-18T03:17:14.987Z,29.20
2022-08-18T03:19:16.655Z,29.20
2022-08-18T03:21:21.662Z,29.20
2022-08-18T03:23:30.159Z,29.20
2022-08-18T03:25:32.161Z,29.30
2022-08-18T03:27:33.761Z,29.20
2022-08-18T03:29:36.180Z,29.20
2022-08-18T03:31:39.126Z,29.20
2022-08-18T03:33:42.251Z,29.20
2022-08-18T03:35:43.991Z,29.30
2022-08-18T03:37:45.613Z,29.20
2022-08-18T03:39:47.276Z,29.20
2022-08-18T03:41:59.829Z,29.20
2022-08-18T03:44:03.369Z,29.20
2022-08-18T03:46:06.518Z,29.20
2022-08-18T03:48:08.622Z,29.20
2022-08-18T03:50:10.196Z,29.30
2022-08-18T03:52:15.774Z,29.30
2022-08-18T03:54:17.951Z,29.20
2022-08-18T03:56:20.852Z,29.20
2022-08-18T03:58:22.420Z,29.20
2022-08-18T04:00:24.104Z,29.20
2022-08-18T04:02:25.659Z,29.20
2022-08-18T04:04:27.647Z,29.20
2022-08-18T04:06:31.071Z,29.20
2022-08-18T04:08:32.655Z,29.20
2022-08-18T04:10:35.512Z,29.20
2022-08-18T04:12:39.756Z,29.20
2022-08-18T04:14:42.267Z,29.20
2022-08-18T04:16:44.425Z,29.20
2022-08-18T04:18:46.408Z,29.20
2022-08-18T04:20:59.344Z,29.20
2022-08-18T04:23:02.119Z,29.20
2022-08-18T04:25:03.850Z,29.20
2022-08-18T04:27:05.432Z,29.20
2022-08-18T04:29:08.086Z,29.20
2022-08-18T04:31:11.469Z,29.20
2022-08-18T04:33:13.072Z,29.20
2022-08-18T04:35:14.897Z,29.20
2022-08-18T04:37:17.260Z,29.20
2022-08-18T04:39:18.846Z,29.20
2022-08-18T04:41:24.119Z,29.20
2022-08-18T04:43:25.698Z,29.20
2022-08-18T04:45:27.711Z,29.20
2022-08-18T04:47:29.284Z,29.20
2022-08-18T04:49:32.040Z,29.20
2022-08-18T04:52:34.496Z,29.20
2022-08-18T04:53:55.903Z,29.20
2022-08-18T04:55:57.566Z,29.20
2022-08-18T04:57:59.470Z,29.20
2022-08-18T05:00:01.083Z,29.20
2022-08-18T05:02:12.696Z,29.20
2022-08-18T05:04:17.118Z,29.20
2022-08-18T05:06:19.607Z,29.20
2022-08-18T05:08:22.248Z,29.20
2022-08-18T05:10:23.808Z,29.20
2022-08-18T05:12:26.240Z,29.20
2022-08-18T05:14:28.261Z,29.20
2022-08-18T05:16:31.880Z,29.20
2022-08-18T05:18:38.536Z,29.20
2022-08-18T05:20:40.666Z,29.20
2022-08-18T05:22:43.247Z,29.20
2022-08-18T05:24:45.276Z,29.20
2022-08-18T05:26:47.549Z,29.20
2022-08-18T05:28:49.193Z,29.20
2022-08-18T05:31:00.436Z,29.20
2022-08-18T05:33:03.424Z,29.20
2022-08-18T05:35:07.079Z,29.20
2022-08-18T05:37:20.713Z,29.20
2022-08-18T05:39:23.933Z,29.20
2022-08-18T05:41:33.728Z,29.20
2022-08-18T05:43:36.408Z,29.20
2022-08-18T05:45:54.517Z,29.20
2022-08-18T05:48:02.095Z,29.20
2022-08-18T05:50:06.177Z,29.20
2022-08-18T05:52:12.464Z,29.20
2022-08-18T05:54:33.728Z,29.20
2022-08-18T05:56:48.903Z,29.20
2022-08-18T05:58:51.811Z,29.20
2022-08-18T06:00:59.669Z,29.20
2022-08-18T06:03:04.817Z,29.10
2022-08-18T06:05:08.201Z,29.10
2022-08-18T06:07:13.263Z,29.20
2022-08-18T06:09:22.219Z,29.20
2022-08-18T06:11:24.002Z,29.20
2022-08-18T06:13:25.597Z,29.20
2022-08-18T06:15:33.148Z,29.20
2022-08-18T06:17:53.511Z,29.20
2022-08-18T06:19:58.262Z,29.20
2022-08-18T06:22:08.317Z,29.20
2022-08-18T06:24:25.413Z,29.20
2022-08-18T06:26:45.678Z,29.20
2022-08-18T06:28:47.241Z,29.20
2022-08-18T06:31:02.753Z,29.20
2022-08-18T06:33:26.141Z,29.20
2022-08-18T06:35:36.487Z,29.20
2022-08-18T06:38:05.768Z,29.20
2022-08-18T06:40:07.553Z,29.20
2022-08-18T06:42:09.167Z,29.20
2022-08-18T06:44:21.147Z,29.20
2022-08-18T06:46:26.069Z,29.10
2022-08-18T06:48:32.871Z,29.20
2022-08-18T06:50:43.469Z,29.10
2022-08-18T06:52:57.481Z,29.20
2022-08-18T06:55:11.346Z,29.10
2022-08-18T06:57:42.121Z,29.20
2022-08-18T06:59:54.079Z,29.20
2022-08-18T07:02:00.194Z,29.20
2022-08-18T07:04:01.772Z,29.20
2022-08-18T07:06:08.191Z,29.20
2022-08-18T07:08:18.577Z,29.20
2022-08-18T07:10:20.559Z,29.20
2022-08-18T07:12:32.125Z,29.20
2022-08-18T07:14:49.000Z,29.20
2022-08-18T07:17:00.048Z,29.20
2022-08-18T07:19:12.336Z,29.10
2022-08-18T07:21:46.080Z,29.10
2022-08-18T07:24:23.209Z,29.20
2022-08-18T07:26:19.355Z,29.20
2022-08-18T07:28:27.602Z,29.20
2022-08-18T07:30:34.474Z,29.20
2022-08-18T07:32:56.295Z,29.20
2022-08-18T07:35:00.686Z,29.20
2022-08-18T07:37:05.137Z,29.20
2022-08-18T07:39:20.826Z,29.20
2022-08-18T07:41:38.896Z,29.20
2022-08-18T07:43:43.087Z,29.20
2022-08-18T07:45:45.688Z,29.20
2022-08-18T07:47:54.911Z,29.20
2022-08-18T07:50:16.915Z,29.20
2022-08-18T07:52:44.577Z,29.20
2022-08-18T07:54:49.547Z,29.20
2022-08-18T07:56:54.724Z,29.20
2022-08-18T07:59:05.126Z,29.20
2022-08-18T08:01:12.940Z,29.20
2022-08-18T08:03:27.937Z,29.10
2022-08-18T08:05:39.521Z,29.10
2022-08-18T08:07:46.100Z,29.20
2022-08-18T08:10:03.182Z,29.20
2022-08-18T08:12:08.834Z,29.20
2022-08-18T08:14:26.740Z,29.20
2022-08-18T08:16:35.392Z,29.20
2022-08-18T08:18:42.158Z,29.20
2022-08-18T08:20:54.617Z,29.20
2022-08-18T08:23:17.381Z,29.20
2022-08-18T08:27:47.206Z,29.10
2022-08-18T08:29:58.009Z,29.10
2022-08-18T08:32:08.595Z,29.20
2022-08-18T08:34:25.895Z,29.20
2022-08-18T08:36:31.571Z,29.20
2022-08-18T08:38:42.409Z,29.20
2022-08-18T08:40:49.065Z,29.20
2022-08-18T08:42:54.880Z,29.20
2022-08-18T08:45:00.652Z,29.20
2022-08-18T08:47:07.947Z,29.20
2022-08-18T08:49:15.464Z,29.20
2022-08-18T08:51:23.102Z,29.10
2022-08-18T08:53:38.461Z,29.10
2022-08-18T08:56:06.441Z,29.10
2022-08-18T08:58:08.003Z,29.10
2022-08-18T09:00:12.030Z,29.20
2022-08-18T09:02:47.708Z,29.20
2022-08-18T09:05:08.808Z,29.10
2022-08-18T09:07:14.305Z,29.10
2022-08-18T09:09:22.557Z,29.10
2022-08-18T09:11:33.549Z,29.20
2022-08-18T09:13:53.256Z,29.20
2022-08-18T09:16:13.617Z,29.10
2022-08-18T09:18:25.661Z,29.20
2022-08-18T09:20:35.339Z,29.20
2022-08-18T09:22:52.471Z,29.20
2022-08-18T09:24:54.733Z,29.20
2022-08-18T09:27:02.156Z,29.20
2022-08-18T09:29:24.564Z,29.20
2022-08-18T09:31:27.377Z,29.20
2022-08-18T09:33:44.959Z,29.20
2022-08-18T09:35:55.214Z,29.20
2022-08-18T09:38:24.435Z,29.20
2022-08-18T09:41:02.592Z,29.20
2022-08-18T09:43:15.804Z,29.20
2022-08-18T09:45:32.873Z,29.20
2022-08-18T09:47:35.360Z,29.20
2022-08-18T09:49:41.766Z,29.20
2022-08-18T09:51:50.399Z,29.20
2022-08-18T09:54:05.281Z,29.20
2022-08-18T09:56:08.037Z,29.10
2022-08-18T09:58:18.714Z,29.10
2022-08-18T10:00:28.276Z,29.20
2022-08-18T10:02:30.075Z,29.20
2022-08-18T10:04:49.075Z,29.10
2022-08-18T10:06:51.639Z,29.20
2022-08-18T10:08:58.933Z,29.10
2022-08-18T10:11:27.599Z,29.10
2022-08-18T10:13:33.103Z,29.20
2022-08-18T10:15:59.027Z,29.10
2022-08-18T10:18:43.662Z,29.10
2022-08-18T10:21:03.465Z,29.10
2022-08-18T10:23:07.359Z,29.10
2022-08-18T10:25:23.053Z,29.10
2022-08-18T10:27:34.068Z,29.10
2022-08-18T10:29:41.676Z,29.10
2022-08-18T10:32:14.220Z,29.10
2022-08-18T10:34:35.953Z,29.10
2022-08-18T10:36:47.704Z,29.10
2022-08-18T10:38:53.351Z,29.10
2022-08-18T10:41:16.135Z,29.10
2022-08-18T10:43:55.090Z,29.10
2022-08-18T10:45:59.460Z,29.20
2022-08-18T10:48:17.283Z,29.20
2022-08-18T10:50:20.943Z,29.20
2022-08-18T10:52:28.358Z,29.20
2022-08-18T10:54:36.049Z,29.20
2022-08-18T10:56:55.608Z,29.20
2022-08-18T11:01:43.188Z,29.20
2022-08-18T11:06:21.330Z,29.30
2022-08-18T11:08:24.857Z,29.20
2022-08-18T11:10:58.178Z,29.20
2022-08-18T11:13:00.211Z,29.20
2022-08-18T11:15:22.805Z,29.30
2022-08-18T11:17:26.386Z,29.30
2022-08-18T11:19:28.497Z,29.30
2022-08-18T11:21:32.510Z,29.30
2022-08-18T11:23:34.239Z,29.30
2022-08-18T11:25:38.037Z,29.30
2022-08-18T11:27:45.149Z,29.30
2022-08-18T11:29:48.639Z,29.30
2022-08-18T11:31:53.530Z,29.30
2022-08-18T11:33:55.324Z,29.30
2022-08-18T11:35:58.128Z,29.40
2022-08-18T11:38:00.901Z,29.40
2022-08-18T11:40:05.829Z,29.40
2022-08-18T11:42:15.662Z,29.40
2022-08-18T11:44:25.167Z,29.40
2022-08-18T11:46:31.120Z,29.40
2022-08-18T11:48:46.522Z,29.40
2022-08-18T11:50:55.652Z,29.40
2022-08-18T11:53:13.258Z,29.40
2022-08-18T11:55:37.039Z,29.40
2022-08-18T11:57:51.437Z,29.40
2022-08-18T12:00:00.768Z,29.40
2022-08-18T12:02:03.256Z,29.40
2022-08-18T12:04:14.039Z,29.40
2022-08-18T12:06:26.910Z,29.40
2022-08-18T12:08:58.886Z,29.50
2022-08-18T12:13:37.338Z,29.50
2022-08-18T12:15:47.404Z,29.50
2022-08-18T12:17:52.213Z,29.50
2022-08-18T12:19:57.137Z,29.50
2022-08-18T12:22:00.342Z,29.50
2022-08-18T12:24:03.768Z,29.50
2022-08-18T12:26:05.590Z,29.50
2022-08-18T12:28:28.415Z,29.50
2022-08-18T12:30:30.119Z,29.50
2022-08-18T12:32:50.290Z,29.50
2022-08-18T12:34:52.788Z,29.60
2022-08-18T12:36:55.518Z,29.60
2022-08-18T12:38:57.659Z,29.50
2022-08-18T12:40:59.480Z,29.50
2022-08-18T12:43:01.678Z,29.60
2022-08-18T12:45:03.525Z,29.50
2022-08-18T12:47:12.088Z,29.50
2022-08-18T12:49:18.040Z,29.50
2022-08-18T12:51:20.338Z,29.60
2022-08-18T12:53:29.625Z,29.50
2022-08-18T12:58:05.427Z,29.50
2022-08-18T13:00:09.071Z,29.60
2022-08-18T13:02:17.197Z,29.60
2022-08-18T13:04:18.848Z,29.60
2022-08-18T13:06:20.433Z,29.60
2022-08-18T13:08:30.551Z,29.60
2022-08-18T13:10:46.648Z,29.60
2022-08-18T13:12:48.604Z,29.60
2022-08-18T13:14:53.677Z,29.60
2022-08-18T13:16:55.378Z,29.70
2022-08-18T13:18:56.989Z,29.60
2022-08-18T13:20:58.777Z,29.60
2022-08-18T13:23:00.435Z,29.60
2022-08-18T13:25:04.019Z,29.60
2022-08-18T13:27:18.474Z,29.60
2022-08-18T13:29:26.008Z,29.70
2022-08-18T13:31:27.736Z,29.70
2022-08-18T13:33:56.197Z,29.70
2022-08-18T13:35:56.027Z,29.60
2022-08-18T13:37:57.657Z,29.60
2022-08-18T13:39:59.661Z,29.70
2022-08-18T13:42:26.482Z,29.70
2022-08-18T13:44:25.702Z,29.70
2022-08-18T13:46:30.935Z,29.60
2022-08-18T13:48:33.288Z,29.70
2022-08-18T13:50:36.038Z,29.70
2022-08-18T13:52:44.387Z,29.70
2022-08-18T13:54:46.290Z,29.70
2022-08-18T13:56:56.321Z,29.70
2022-08-18T13:58:59.840Z,29.70
2022-08-18T14:01:39.481Z,29.70
2022-08-18T14:03:42.276Z,29.70
2022-08-18T14:05:51.384Z,29.70
2022-08-18T14:07:56.858Z,29.70
2022-08-18T14:09:58.966Z,29.70
2022-08-18T14:12:32.659Z,29.70
2022-08-18T14:14:34.901Z,29.70
2022-08-18T14:16:37.952Z,29.70
2022-08-18T14:18:45.735Z,29.70
2022-08-18T14:21:06.144Z,29.80
2022-08-18T14:23:33.256Z,29.70
2022-08-18T14:25:53.868Z,29.70
2022-08-18T14:27:57.006Z,29.70
2022-08-18T14:29:58.968Z,29.70
2022-08-18T14:32:01.809Z,29.70
2022-08-18T14:34:04.701Z,29.80
2022-08-18T14:36:09.383Z,29.70
2022-08-18T14:38:11.498Z,29.80
2022-08-18T14:40:13.223Z,29.70
2022-08-18T14:42:15.623Z,29.80
2022-08-18T14:44:23.967Z,29.80
2022-08-18T14:46:30.622Z,29.80
2022-08-18T14:48:34.536Z,29.70
2022-08-18T14:50:36.918Z,29.80
2022-08-18T14:52:39.834Z,29.80
2022-08-18T14:54:46.264Z,29.80
2022-08-18T14:56:52.751Z,29.80
2022-08-18T14:58:55.180Z,29.70
2022-08-18T15:01:01.950Z,29.80
2022-08-18T15:03:10.731Z,29.80
2022-08-18T15:05:19.704Z,29.80
2022-08-18T15:07:26.284Z,29.80
2022-08-18T15:09:29.765Z,29.80
2022-08-18T15:11:32.024Z,29.80
2022-08-18T15:13:36.522Z,29.80
2022-08-18T15:15:50.835Z,29.80
2022-08-18T15:17:53.697Z,29.80
2022-08-18T15:20:00.165Z,29.80
2022-08-18T15:22:21.457Z,29.80
2022-08-18T15:24:41.769Z,29.80
2022-08-18T15:26:45.831Z,29.80
2022-08-18T15:28:47.577Z,29.80
2022-08-18T15:31:16.623Z,29.80
2022-08-18T15:33:15.523Z,29.80
2022-08-18T15:35:17.952Z,29.80
2022-08-18T15:37:24.205Z,29.80
2022-08-18T15:39:26.413Z,29.80
2022-08-18T15:41:33.981Z,29.80
2022-08-18T15:43:39.939Z,29.80
2022-08-18T15:45:56.126Z,29.80
2022-08-18T15:48:01.223Z,29.80
2022-08-18T15:50:17.033Z,29.80
2022-08-18T15:52:26.046Z,29.80
2022-08-18T15:54:27.785Z,29.80
2022-08-18T15:56:29.833Z,29.80
2022-08-18T15:58:32.489Z,29.80
2022-08-18T16:00:34.263Z,29.80
2022-08-18T16:02:39.046Z,29.80
2022-08-18T16:04:41.377Z,29.80
2022-08-18T16:06:50.883Z,29.80
2022-08-18T16:08:54.399Z,29.80
2022-08-18T16:10:55.979Z,29.80
2022-08-18T16:12:58.052Z,29.80
2022-08-18T16:14:59.747Z,29.80
2022-08-18T16:17:06.080Z,29.80
2022-08-18T16:19:10.864Z,29.80
2022-08-18T16:21:14.172Z,29.80
2022-08-18T16:23:15.760Z,29.80
2022-08-18T16:25:17.419Z,29.80
2022-08-18T16:27:18.989Z,29.90
2022-08-18T16:29:21.327Z,29.80
2022-08-18T16:31:26.639Z,29.80
2022-08-18T16:33:28.278Z,29.80
2022-08-18T16:35:30.315Z,29.80
2022-08-18T16:37:31.919Z,29.80
2022-08-18T16:39:33.738Z,29.80
2022-08-18T16:41:35.351Z,29.80
2022-08-18T16:43:37.523Z,29.80
2022-08-18T16:45:40.443Z,29.80
2022-08-18T16:47:42.034Z,29.80
2022-08-18T16:49:45.370Z,29.80
2022-08-18T16:51:46.966Z,29.90
2022-08-18T16:53:52.033Z,29.80
2022-08-18T16:55:53.599Z,29.80
2022-08-18T16:58:15.750Z,29.80
2022-08-18T17:00:36.345Z,29.90
2022-08-18T17:02:56.653Z,29.80
2022-08-18T17:05:02.316Z,29.90
2022-08-18T17:07:04.840Z,29.90
2022-08-18T17:09:09.827Z,29.90
2022-08-18T17:11:16.996Z,29.90
2022-08-18T17:13:18.619Z,29.90
2022-08-18T17:15:20.795Z,29.90
2022-08-18T17:17:22.568Z,29.80
2022-08-18T17:19:26.785Z,29.90
2022-08-18T17:21:29.925Z,29.90
2022-08-18T17:23:31.971Z,29.90
2022-08-18T17:25:34.593Z,29.90
2022-08-18T17:27:38.022Z,29.90
2022-08-18T17:29:43.451Z,29.80
2022-08-18T17:31:49.050Z,29.80
2022-08-18T17:33:51.441Z,29.90
2022-08-18T17:35:55.726Z,29.90
2022-08-18T17:38:04.612Z,29.90
2022-08-18T17:40:14.667Z,29.90
2022-08-18T17:42:29.076Z,29.80
2022-08-18T17:44:31.437Z,29.90
2022-08-18T17:46:38.147Z,29.90
2022-08-18T17:48:45.993Z,29.90
2022-08-18T17:51:15.310Z,29.90
2022-08-18T17:53:17.131Z,29.90
2022-08-18T17:55:23.047Z,29.80
2022-08-18T17:57:29.776Z,29.80
2022-08-18T17:59:51.865Z,29.80
2022-08-18T18:02:33.409Z,29.80
2022-08-18T18:04:35.208Z,29.80
2022-08-18T18:06:39.103Z,29.80
2022-08-18T18:09:06.838Z,29.80
2022-08-18T18:11:11.454Z,29.80
2022-08-18T18:13:17.896Z,29.80
2022-08-18T18:15:29.985Z,29.80
2022-08-18T18:17:37.482Z,29.80
2022-08-18T18:19:39.187Z,29.80
2022-08-18T18:22:01.000Z,29.80
2022-08-18T18:24:05.049Z,29.80
2022-08-18T18:26:28.257Z,29.80
2022-08-18T18:28:33.169Z,29.80
2022-08-18T18:30:34.829Z,29.80
2022-08-18T18:32:59.455Z,29.80
2022-08-18T18:35:01.412Z,29.80
2022-08-18T18:37:03.047Z,29.80
2022-08-18T18:39:07.559Z,29.80
2022-08-18T18:41:11.856Z,29.80
2022-08-18T18:43:19.245Z,29.80
2022-08-18T18:45:31.085Z,29.80
2022-08-18T18:47:53.545Z,29.80
2022-08-18T18:49:59.671Z,29.80
2022-08-18T18:52:07.614Z,29.80
2022-08-18T18:54:17.986Z,29.80
2022-08-18T18:56:29.353Z,29.80
2022-08-18T18:58:48.135Z,29.80
2022-08-18T19:00:53.568Z,29.80
2022-08-18T19:03:07.721Z,29.80
2022-08-18T19:05:09.309Z,29.80
2022-08-18T19:07:33.953Z,29.80
2022-08-18T19:09:48.481Z,29.80
2022-08-18T19:12:11.379Z,29.80
2022-08-18T19:14:17.520Z,29.80
2022-08-18T19:16:23.269Z,29.80
2022-08-18T19:18:27.809Z,29.80
2022-08-18T19:20:36.619Z,29.80
2022-08-18T19:22:38.188Z,29.80
2022-08-18T19:24:46.108Z,29.80
2022-08-18T19:26:52.691Z,29.80
2022-08-18T19:28:59.822Z,29.80
2022-08-18T19:31:24.100Z,29.80
2022-08-18T19:33:52.113Z,29.80
2022-08-18T19:36:08.149Z,29.80
2022-08-18T19:38:33.102Z,29.80
2022-08-18T19:40:40.562Z,29.80
2022-08-18T19:42:58.622Z,29.80
2022-08-18T19:45:17.001Z,29.80
2022-08-18T19:47:55.541Z,29.80
2022-08-18T19:49:57.164Z,29.80
2022-08-18T19:52:01.435Z,29.80
2022-08-18T19:54:21.588Z,29.80
2022-08-18T19:56:32.720Z,29.80
2022-08-18T19:58:34.279Z,29.80
2022-08-18T20:00:56.205Z,29.80
2022-08-18T20:03:03.839Z,29.80
2022-08-18T20:05:24.053Z,29.80
2022-08-18T20:07:28.453Z,29.70
2022-08-18T20:09:38.931Z,29.80
2022-08-18T20:11:52.626Z,29.80
2022-08-18T20:13:55.400Z,29.80
2022-08-18T20:15:59.940Z,29.70
2022-08-18T20:18:04.625Z,29.70
2022-08-18T20:20:12.961Z,29.70
2022-08-18T20:22:21.895Z,29.80
2022-08-18T20:24:32.429Z,29.70
2022-08-18T20:26:40.077Z,29.80
2022-08-18T20:28:41.848Z,29.70
2022-08-18T20:30:55.440Z,29.80
2022-08-18T20:33:06.796Z,29.80
2022-08-18T20:35:20.060Z,29.70
2022-08-18T20:37:25.487Z,29.70
2022-08-18T20:39:29.651Z,29.70
2022-08-18T20:41:33.363Z,29.70
2022-08-18T20:43:40.880Z,29.70
2022-08-18T20:45:45.828Z,29.70
2022-08-18T20:47:57.015Z,29.70
2022-08-18T20:50:04.456Z,29.70
2022-08-18T20:52:15.524Z,29.70
2022-08-18T20:54:21.464Z,29.70
2022-08-18T20:56:44.358Z,29.70
2022-08-18T20:58:57.208Z,29.70
2022-08-18T21:01:00.096Z,29.70
2022-08-18T21:03:06.314Z,29.70
2022-08-18T21:05:10.421Z,29.70
2022-08-18T21:07:37.054Z,29.70
2022-08-18T21:09:39.167Z,29.70
2022-08-18T21:11:42.887Z,29.70
2022-08-18T21:13:44.435Z,29.70
2022-08-18T21:15:46.004Z,29.70
2022-08-18T21:17:57.119Z,29.70
2022-08-18T21:20:06.434Z,29.70
2022-08-18T21:22:10.643Z,29.70
2022-08-18T21:24:27.633Z,29.70
2022-08-18T21:26:30.801Z,29.70
2022-08-18T21:28:34.789Z,29.70
2022-08-18T21:30:36.787Z,29.70
2022-08-18T21:32:39.545Z,29.70
2022-08-18T21:34:45.032Z,29.70
2022-08-18T21:36:54.205Z,29.70
2022-08-18T21:39:05.612Z,29.70
2022-08-18T21:41:12.887Z,29.70
2022-08-18T21:43:53.154Z,29.70
2022-08-18T21:45:59.273Z,29.70
2022-08-18T21:48:04.326Z,29.70
2022-08-18T21:50:08.229Z,29.70
2022-08-18T21:52:09.810Z,29.70
2022-08-18T21:54:15.803Z,29.70
2022-08-18T21:56:25.032Z,29.70
2022-08-18T21:58:34.229Z,29.70
2022-08-18T22:00:38.756Z,29.70
2022-08-18T22:02:41.343Z,29.70
2022-08-18T22:04:47.108Z,29.70
2022-08-18T22:06:50.250Z,29.70
2022-08-18T22:08:57.343Z,29.70
2022-08-18T22:12:01.727Z,29.70
2022-08-18T22:14:14.204Z,29.70
2022-08-18T22:16:43.496Z,29.70
2022-08-18T22:18:45.065Z,29.70
2022-08-18T22:20:48.472Z,29.70
2022-08-18T22:23:08.648Z,29.70
2022-08-18T22:25:11.232Z,29.70
2022-08-18T22:27:17.936Z,29.60
2022-08-18T22:29:52.008Z,29.70
2022-08-18T22:31:54.700Z,29.70
2022-08-18T22:33:56.665Z,29.70
2022-08-18T22:35:58.252Z,29.70
2022-08-18T22:38:01.295Z,29.60
2022-08-18T22:40:05.195Z,29.60
2022-08-18T22:42:07.784Z,29.70
2022-08-18T22:44:10.342Z,29.70
2022-08-18T22:46:12.071Z,29.70
2022-08-18T22:48:22.176Z,29.70
2022-08-18T22:50:23.780Z,29.70
2022-08-18T22:52:29.598Z,29.70
2022-08-18T22:54:31.842Z,29.70
2022-08-18T22:56:34.954Z,29.70
2022-08-18T22:58:37.300Z,29.60
2022-08-18T23:00:40.881Z,29.60
2022-08-18T23:02:47.633Z,29.60
2022-08-18T23:04:49.225Z,29.70
2022-08-18T23:06:52.142Z,29.70
2022-08-18T23:08:55.985Z,29.70
2022-08-18T23:10:57.815Z,29.70
2022-08-18T23:13:03.755Z,29.60
2022-08-18T23:15:11.041Z,29.70
2022-08-18T23:17:13.965Z,29.70
2022-08-18T23:19:16.928Z,29.60
2022-08-18T23:21:34.923Z,29.70
2022-08-18T23:23:37.135Z,29.70
2022-08-18T23:25:39.471Z,29.60
2022-08-18T23:27:42.791Z,29.60
2022-08-18T23:29:44.410Z,29.60
2022-08-18T23:31:46.250Z,29.60
2022-08-18T23:33:47.836Z,29.60
2022-08-18T23:35:50.268Z,29.60
2022-08-18T23:37:51.848Z,29.60
2022-08-18T23:39:53.511Z,29.60
2022-08-18T23:41:55.492Z,29.60
2022-08-18T23:43:57.608Z,29.60
2022-08-18T23:45:59.184Z,29.60
2022-08-18T23:48:00.999Z,29.60
2022-08-18T23:50:04.596Z,29.60
2022-08-18T23:52:06.242Z,29.60
2022-08-18T23:54:09.235Z,29.60
2022-08-18T23:56:10.802Z,29.60
2022-08-18T23:58:12.384Z,29.60
